createdAt,value
2022-09-23T00:01:38.267Z,4.00
2022-09-23T00:05:48.443Z,7.17
2022-09-23T00:09:57.016Z,5.20
2022-09-23T00:14:05.800Z,11.03
2022-09-23T00:18:14.448Z,6.60
2022-09-23T00:22:23.269Z,10.70
2022-09-23T00:26:31.857Z,4.17
2022-09-23T00:30:41.998Z,4.77
2022-09-23T00:34:51.467Z,4.77
2022-09-23T00:39:00.318Z,7.57
2022-09-23T00:43:12.322Z,5.83
2022-09-23T00:47:41.823Z,5.87
2022-09-23T00:51:56.054Z,5.50
2022-09-23T00:56:07.451Z,6.67
2022-09-23T01:00:16.080Z,6.23
2022-09-23T01:04:27.606Z,6.90
2022-09-23T01:08:36.432Z,5.13
2022-09-23T01:13:09.151Z,6.83
2022-09-23T01:17:23.558Z,6.10
2022-09-23T01:21:41.013Z,4.20
2022-09-23T01:25:52.721Z,7.27
2022-09-23T01:30:19.940Z,6.07
2022-09-23T01:35:00.383Z,8.87
2022-09-23T01:39:32.921Z,5.77
2022-09-23T01:43:56.759Z,6.47
2022-09-23T01:48:20.588Z,9.53
2022-09-23T01:52:38.185Z,4.17
2022-09-23T01:56:52.563Z,4.10
2022-09-23T02:01:05.150Z,8.83
2022-09-23T02:05:21.306Z,4.30
2022-09-23T02:09:32.943Z,6.50
2022-09-23T02:13:50.471Z,7.07
2022-09-23T02:18:10.698Z,7.73
2022-09-23T02:22:31.004Z,7.30
2022-09-23T02:26:48.346Z,5.33
2022-09-23T02:31:00.248Z,5.73
2022-09-23T02:35:18.133Z,4.90
2022-09-23T02:39:29.723Z,5.00
2022-09-23T02:43:59.901Z,8.23
2022-09-23T02:48:23.433Z,5.77
2022-09-23T02:52:32.998Z,3.80
2022-09-23T02:56:42.201Z,5.23
2022-09-23T03:01:06.209Z,7.00
2022-09-23T03:05:26.518Z,5.77
2022-09-23T03:09:38.166Z,4.33
2022-09-23T03:14:07.991Z,8.67
2022-09-23T03:18:32.227Z,7.17
2022-09-23T03:23:07.895Z,7.20
2022-09-23T03:27:19.601Z,7.03
2022-09-23T03:31:29.766Z,6.83
2022-09-23T03:35:43.021Z,8.30
2022-09-23T03:40:12.554Z,5.70
2022-09-23T03:44:23.331Z,9.33
2022-09-23T03:48:31.892Z,6.37
2022-09-23T03:52:40.831Z,10.47
2022-09-23T03:56:50.213Z,12.30
2022-09-23T04:01:18.572Z,5.50
2022-09-23T04:05:27.307Z,5.60
2022-09-23T04:09:36.230Z,5.70
2022-09-23T04:13:44.901Z,8.60
2022-09-23T04:17:53.443Z,8.03
2022-09-23T04:22:03.103Z,5.63
2022-09-23T04:26:32.064Z,8.73
2022-09-23T04:30:46.121Z,7.07
2022-09-23T04:34:54.696Z,6.60
2022-09-23T04:39:03.640Z,11.43
2022-09-23T04:43:31.663Z,5.70
2022-09-23T04:47:40.243Z,5.57
2022-09-23T04:51:48.834Z,7.20
2022-09-23T04:56:06.416Z,7.33
2022-09-23T05:00:16.422Z,9.70
2022-09-23T05:04:24.960Z,5.40
2022-09-23T05:08:33.502Z,7.23
2022-09-23T05:12:42.170Z,12.60
2022-09-23T05:16:50.747Z,8.37
2022-09-23T05:20:59.687Z,7.87
2022-09-23T05:25:08.605Z,11.80
2022-09-23T05:29:17.436Z,5.83
2022-09-23T05:33:26.016Z,4.83
2022-09-23T05:37:35.215Z,5.50
2022-09-23T05:41:43.769Z,8.70
2022-09-23T05:45:52.866Z,8.23
2022-09-23T05:50:01.448Z,8.77
2022-09-23T05:54:10.219Z,5.93
2022-09-23T05:58:20.832Z,6.07
2022-09-23T06:02:29.480Z,9.90
2022-09-23T06:06:41.278Z,9.20
2022-09-23T06:10:54.462Z,10.17
2022-09-23T06:15:00.967Z,6.20
2022-09-23T06:19:10.386Z,10.80
2022-09-23T06:23:20.274Z,8.07
2022-09-23T06:27:29.130Z,6.00
2022-09-23T06:31:37.771Z,6.87
2022-09-23T06:35:56.706Z,8.83
2022-09-23T06:39:57.671Z,7.40
2022-09-23T06:44:06.398Z,6.37
2022-09-23T06:48:15.090Z,5.47
2022-09-23T06:52:23.651Z,5.83
2022-09-23T06:56:36.386Z,5.40
2022-09-23T07:00:42.435Z,7.63
2022-09-23T07:04:51.459Z,9.90
2022-09-23T07:09:00.933Z,4.97
2022-09-23T07:13:14.225Z,5.00
2022-09-23T07:17:20.746Z,4.97
2022-09-23T07:21:48.986Z,7.07
2022-09-23T07:26:18.539Z,5.27
2022-09-23T07:30:27.310Z,6.10
2022-09-23T07:34:36.404Z,5.63
2022-09-23T07:38:47.334Z,4.70
2022-09-23T07:42:56.053Z,5.20
2022-09-23T07:47:05.020Z,7.17
2022-09-23T07:51:20.288Z,5.00
2022-09-23T07:55:28.864Z,6.57
2022-09-23T07:59:37.421Z,5.70
2022-09-23T08:03:47.466Z,5.17
2022-09-23T08:07:56.299Z,4.50
2022-09-23T08:12:06.293Z,6.03
2022-09-23T08:16:15.561Z,6.57
2022-09-23T08:20:47.810Z,6.40
2022-09-23T08:24:58.308Z,7.70
2022-09-23T08:29:09.144Z,4.23
2022-09-23T08:37:54.801Z,5.67
2022-09-23T08:42:18.574Z,8.40
2022-09-23T08:46:30.253Z,7.57
2022-09-23T08:50:43.627Z,6.50
2022-09-23T08:54:55.474Z,5.20
2022-09-23T08:59:08.044Z,7.67
2022-09-23T09:03:25.277Z,5.93
2022-09-23T09:07:37.884Z,8.33
2022-09-23T09:11:50.872Z,5.30
2022-09-23T09:16:06.857Z,5.20
2022-09-23T09:20:18.909Z,5.23
2022-09-23T09:24:30.582Z,5.40
2022-09-23T09:28:48.486Z,6.87
2022-09-23T09:33:02.091Z,4.13
2022-09-23T09:37:13.681Z,6.90
2022-09-23T09:41:24.766Z,6.13
2022-09-23T09:45:59.205Z,6.30
2022-09-23T09:50:15.959Z,6.47
2022-09-23T09:54:25.932Z,8.90
2022-09-23T09:58:50.484Z,7.80
2022-09-23T10:03:01.327Z,5.57
2022-09-23T10:07:17.164Z,4.77
2022-09-23T10:11:25.735Z,5.50
2022-09-23T10:15:43.858Z,5.80
2022-09-23T10:19:53.065Z,5.30
2022-09-23T10:24:03.463Z,4.53
2022-09-23T10:28:34.807Z,5.10
2022-09-23T10:32:46.563Z,6.90
2022-09-23T10:37:12.258Z,8.80
2022-09-23T10:41:50.945Z,12.43
2022-09-23T10:46:20.902Z,14.33
2022-09-23T10:50:52.237Z,7.60
2022-09-23T10:55:30.795Z,6.27
2022-09-23T11:00:07.409Z,7.03
2022-09-23T11:04:25.999Z,5.00
2022-09-23T11:08:40.697Z,4.90
2022-09-23T11:13:10.196Z,4.63
2022-09-23T11:17:36.892Z,4.63
2022-09-23T11:21:56.368Z,5.13
2022-09-23T11:26:32.766Z,3.90
2022-09-23T11:31:14.655Z,5.55
2022-09-23T11:35:32.297Z,4.13
2022-09-23T11:39:52.229Z,4.60
2022-09-23T11:44:09.561Z,6.77
2022-09-23T11:48:21.251Z,7.40
2022-09-23T11:52:38.936Z,4.67
2022-09-23T11:56:51.242Z,3.87
2022-09-23T12:01:07.868Z,5.47
2022-09-23T12:05:20.632Z,6.00
2022-09-23T12:09:58.226Z,4.13
2022-09-23T12:14:11.690Z,5.87
2022-09-23T12:18:30.257Z,5.90
2022-09-23T12:23:01.522Z,8.57
2022-09-23T12:27:13.147Z,4.60
2022-09-23T12:31:26.424Z,5.33
2022-09-23T12:35:41.199Z,6.40
2022-09-23T12:39:49.769Z,5.60
2022-09-23T12:44:16.610Z,5.43
2022-09-23T12:48:30.406Z,5.93
2022-09-23T12:52:41.091Z,6.20
2022-09-23T12:56:58.526Z,4.43
2022-09-23T13:01:18.791Z,5.80
2022-09-23T13:05:46.196Z,4.07
2022-09-23T13:10:00.291Z,5.87
2022-09-23T13:14:09.359Z,3.60
2022-09-23T13:18:23.734Z,4.10
2022-09-23T13:22:53.533Z,5.57
2022-09-23T13:27:07.935Z,5.00
2022-09-23T13:31:19.365Z,3.43
2022-09-23T13:35:37.320Z,4.60
2022-09-23T13:39:45.970Z,4.00
2022-09-23T13:43:59.840Z,5.07
2022-09-23T13:48:11.629Z,3.70
2022-09-23T13:52:34.269Z,5.20
2022-09-23T13:56:46.028Z,9.93
2022-09-23T14:00:56.013Z,6.70
2022-09-23T14:05:07.697Z,5.50
2022-09-23T14:09:17.704Z,4.57
2022-09-23T14:13:46.271Z,3.07
2022-09-23T14:18:06.546Z,3.93
2022-09-23T14:22:27.711Z,4.87
2022-09-23T14:26:36.514Z,3.10
2022-09-23T14:30:48.625Z,3.80
2022-09-23T14:35:06.722Z,3.13
2022-09-23T14:39:16.943Z,3.70
2022-09-23T14:43:29.921Z,4.50
2022-09-23T14:47:38.811Z,3.43
2022-09-23T14:52:00.598Z,3.70
2022-09-23T14:56:24.124Z,3.50
2022-09-23T15:00:36.267Z,3.10
2022-09-23T15:04:44.938Z,2.90
2022-09-23T15:08:56.115Z,4.93
2022-09-23T15:13:29.053Z,4.63
2022-09-23T15:17:38.372Z,3.90
2022-09-23T15:21:47.866Z,3.40
2022-09-23T15:25:56.435Z,5.13
2022-09-23T15:30:21.900Z,4.17
2022-09-23T15:34:31.904Z,3.60
2022-09-23T15:38:44.783Z,3.73
2022-09-23T15:42:56.418Z,3.53
2022-09-23T15:47:05.536Z,3.30
2022-09-23T15:51:16.020Z,2.80
2022-09-23T15:55:28.634Z,2.73
2022-09-23T15:59:38.079Z,3.80
2022-09-23T16:03:46.640Z,11.03
2022-09-23T16:08:14.708Z,5.50
2022-09-23T16:12:24.134Z,8.90
2022-09-23T16:16:32.705Z,4.13
2022-09-23T16:20:44.619Z,7.33
2022-09-23T16:24:53.298Z,4.23
2022-09-23T16:29:02.398Z,7.27
2022-09-23T16:33:11.069Z,5.60
2022-09-23T16:37:21.747Z,4.90
2022-09-23T16:41:33.964Z,3.73
2022-09-23T16:45:42.635Z,5.43
2022-09-23T16:49:51.220Z,4.50
2022-09-23T16:54:00.180Z,3.67
2022-09-23T16:58:08.883Z,5.62
2022-09-23T17:02:35.948Z,5.77
2022-09-23T17:07:06.750Z,5.03
2022-09-23T17:11:34.675Z,4.00
2022-09-23T17:15:44.736Z,4.63
2022-09-23T17:19:53.233Z,5.93
2022-09-23T17:24:02.106Z,4.10
2022-09-23T17:28:10.624Z,3.77
2022-09-23T17:32:19.202Z,4.03
2022-09-23T17:36:29.211Z,3.67
2022-09-23T17:40:39.835Z,4.00
2022-09-23T17:44:48.509Z,4.27
2022-09-23T17:49:17.934Z,5.70
2022-09-23T17:53:26.666Z,4.73
2022-09-23T17:57:54.565Z,3.80
2022-09-23T18:02:03.164Z,4.30
2022-09-23T18:06:14.979Z,4.23
2022-09-23T18:10:23.606Z,3.57
2022-09-23T18:14:32.238Z,3.80
2022-09-23T18:18:41.683Z,4.07
2022-09-23T18:22:52.264Z,5.90
2022-09-23T18:27:02.086Z,4.40
2022-09-23T18:31:12.283Z,6.53
2022-09-23T18:35:20.909Z,4.43
2022-09-23T18:39:29.712Z,7.03
2022-09-23T18:43:42.215Z,5.67
2022-09-23T18:48:06.456Z,5.27
2022-09-23T18:52:15.699Z,6.63
2022-09-23T18:56:26.345Z,5.00
2022-09-23T19:00:41.316Z,5.60
2022-09-23T19:04:52.547Z,6.13
2022-09-23T19:09:01.189Z,7.97
2022-09-23T19:13:09.828Z,5.17
2022-09-23T19:17:18.455Z,5.60
2022-09-23T19:21:28.559Z,6.43
2022-09-23T19:25:37.579Z,5.93
2022-09-23T19:29:47.444Z,7.70
2022-09-23T19:34:01.170Z,4.47
2022-09-23T19:38:10.257Z,5.17
2022-09-23T19:42:18.843Z,5.53
2022-09-23T19:46:27.505Z,4.70
2022-09-23T19:50:41.474Z,8.87
2022-09-23T19:54:50.039Z,4.60
2022-09-23T19:58:59.243Z,10.00
2022-09-23T20:03:07.828Z,6.03
2022-09-23T20:07:16.415Z,6.47
2022-09-23T20:11:28.415Z,8.33
2022-09-23T20:15:37.515Z,5.73
2022-09-23T20:19:47.458Z,6.50
2022-09-23T20:23:56.408Z,4.70
2022-09-23T20:28:05.853Z,6.70
2022-09-23T20:32:16.043Z,6.07
2022-09-23T20:36:26.276Z,8.87
2022-09-23T20:40:35.512Z,11.33
2022-09-23T20:44:45.149Z,7.83
2022-09-23T20:48:55.535Z,5.80
2022-09-23T20:53:04.110Z,6.20
2022-09-23T20:57:15.753Z,5.93
2022-09-23T21:01:24.848Z,6.83
2022-09-23T21:05:36.069Z,7.23
2022-09-23T21:09:44.684Z,13.07
2022-09-23T21:14:12.589Z,9.63
2022-09-23T21:18:22.638Z,5.63
2022-09-23T21:22:32.485Z,6.20
2022-09-23T21:26:41.210Z,5.83
2022-09-23T21:30:52.051Z,6.47
2022-09-23T21:35:12.654Z,6.70
2022-09-23T21:39:21.340Z,6.70
2022-09-23T21:43:34.932Z,6.63
2022-09-23T21:47:43.611Z,8.70
2022-09-23T21:51:54.012Z,13.00
2022-09-23T21:56:10.884Z,7.27
2022-09-23T22:00:19.736Z,8.90
2022-09-23T22:04:28.268Z,10.73
2022-09-23T22:08:39.459Z,10.80
2022-09-23T22:12:51.254Z,18.03
2022-09-23T22:17:02.252Z,13.13
2022-09-23T22:21:10.842Z,13.30
2022-09-23T22:25:20.402Z,11.50
2022-09-23T22:29:47.240Z,9.70
2022-09-23T22:33:55.902Z,18.40
2022-09-23T22:38:04.645Z,14.40
2022-09-23T22:42:33.333Z,13.30
2022-09-23T22:46:42.034Z,13.77
2022-09-23T22:50:50.812Z,15.03
2022-09-23T22:54:59.526Z,13.30
2022-09-23T22:59:09.723Z,12.23
2022-09-23T23:03:20.098Z,15.00
2022-09-23T23:07:28.690Z,14.63
2022-09-23T23:11:39.583Z,11.80
2022-09-23T23:15:48.479Z,14.57
2022-09-23T23:19:57.959Z,11.17
2022-09-23T23:24:06.901Z,13.00
2022-09-23T23:28:15.520Z,16.57
2022-09-23T23:32:24.064Z,11.00
2022-09-23T23:36:32.649Z,15.43
2022-09-23T23:40:41.320Z,13.47
2022-09-23T23:44:50.033Z,12.43
2022-09-23T23:48:59.682Z,14.90
2022-09-23T23:53:09.957Z,12.50
2022-09-23T23:57:18.446Z,18.00
